sensor_id;sensor_type;location;lat;lon;timestamp;pressure;altitude;pressure_sealevel;temperature;humidity
54546;BME280;40444;45.184;9.850;2023-11-19T00:01:00;101569.84;;;6.96;100.00
54546;BME280;40444;45.184;9.850;2023-11-19T00:03:28;101564.34;;;6.99;100.00
54546;BME280;40444;45.184;9.850;2023-11-19T00:05:57;101563.59;;;6.97;100.00
54546;BME280;40444;45.184;9.850;2023-11-19T00:08:26;101565.19;;;6.99;100.00
54546;BME280;40444;45.184;9.850;2023-11-19T00:10:55;101561.94;;;6.94;100.00
54546;BME280;40444;45.184;9.850;2023-11-19T00:13:24;101560.25;;;6.93;100.00
54546;BME280;40444;45.184;9.850;2023-11-19T00:15:54;101555.75;;;6.94;100.00
54546;BME280;40444;45.184;9.850;2023-11-19T00:18:23;101559.19;;;6.96;100.00
54546;BME280;40444;45.184;9.850;2023-11-19T00:20:51;101552.94;;;6.97;100.00
54546;BME280;40444;45.184;9.850;2023-11-19T00:23:19;101554.44;;;7.01;100.00
54546;BME280;40444;45.184;9.850;2023-11-19T00:25:48;101553.38;;;6.89;100.00
54546;BME280;40444;45.184;9.850;2023-11-19T00:28:16;101546.00;;;6.78;100.00
54546;BME280;40444;45.184;9.850;2023-11-19T00:30:45;101545.47;;;6.88;100.00
54546;BME280;40444;45.184;9.850;2023-11-19T00:33:13;101553.19;;;6.92;100.00
54546;BME280;40444;45.184;9.850;2023-11-19T00:35:42;101544.41;;;6.90;100.00
54546;BME280;40444;45.184;9.850;2023-11-19T00:38:12;101543.25;;;6.80;100.00
54546;BME280;40444;45.184;9.850;2023-11-19T00:40:40;101537.34;;;6.75;100.00
54546;BME280;40444;45.184;9.850;2023-11-19T00:43:09;101550.84;;;6.72;100.00
54546;BME280;40444;45.184;9.850;2023-11-19T00:45:38;101536.94;;;6.67;100.00
54546;BME280;40444;45.184;9.850;2023-11-19T00:48:07;101536.75;;;6.70;100.00
54546;BME280;40444;45.184;9.850;2023-11-19T00:50:36;101531.16;;;6.74;100.00
54546;BME280;40444;45.184;9.850;2023-11-19T00:53:06;101527.03;;;6.69;100.00
54546;BME280;40444;45.184;9.850;2023-11-19T00:55:35;101532.59;;;6.80;100.00
54546;BME280;40444;45.184;9.850;2023-11-19T00:58:14;101529.94;;;6.80;100.00
54546;BME280;40444;45.184;9.850;2023-11-19T01:00:42;101527.06;;;6.83;100.00
54546;BME280;40444;45.184;9.850;2023-11-19T01:03:11;101528.03;;;6.82;100.00
54546;BME280;40444;45.184;9.850;2023-11-19T01:05:40;101527.84;;;6.85;100.00
54546;BME280;40444;45.184;9.850;2023-11-19T01:08:08;101543.56;;;6.90;100.00
54546;BME280;40444;45.184;9.850;2023-11-19T01:10:37;101540.06;;;6.89;100.00
54546;BME280;40444;45.184;9.850;2023-11-19T01:13:06;101540.22;;;6.86;100.00
54546;BME280;40444;45.184;9.850;2023-11-19T01:15:34;101535.00;;;6.84;100.00
54546;BME280;40444;45.184;9.850;2023-11-19T01:18:03;101526.03;;;6.86;100.00
54546;BME280;40444;45.184;9.850;2023-11-19T01:20:33;101524.03;;;6.75;100.00
54546;BME280;40444;45.184;9.850;2023-11-19T01:23:03;101526.56;;;6.62;100.00
54546;BME280;40444;45.184;9.850;2023-11-19T01:25:33;101515.91;;;6.62;100.00
54546;BME280;40444;45.184;9.850;2023-11-19T01:28:02;101515.34;;;6.71;100.00
54546;BME280;40444;45.184;9.850;2023-11-19T01:30:33;101514.56;;;6.69;100.00
54546;BME280;40444;45.184;9.850;2023-11-19T01:33:01;101505.72;;;6.69;100.00
54546;BME280;40444;45.184;9.850;2023-11-19T01:35:30;101513.13;;;6.64;100.00
54546;BME280;40444;45.184;9.850;2023-11-19T01:37:58;101510.56;;;6.62;100.00
54546;BME280;40444;45.184;9.850;2023-11-19T01:40:26;101520.53;;;6.58;100.00
54546;BME280;40444;45.184;9.850;2023-11-19T01:42:55;101522.19;;;6.61;100.00
54546;BME280;40444;45.184;9.850;2023-11-19T01:45:29;101521.75;;;6.53;100.00
54546;BME280;40444;45.184;9.850;2023-11-19T01:48:00;101515.91;;;6.46;100.00
54546;BME280;40444;45.184;9.850;2023-11-19T01:50:32;101506.91;;;6.49;100.00
54546;BME280;40444;45.184;9.850;2023-11-19T01:53:01;101506.81;;;6.50;100.00
54546;BME280;40444;45.184;9.850;2023-11-19T01:55:30;101493.75;;;6.46;100.00
54546;BME280;40444;45.184;9.850;2023-11-19T01:58:00;101502.53;;;6.48;100.00
54546;BME280;40444;45.184;9.850;2023-11-19T02:00:31;101499.34;;;6.41;100.00
54546;BME280;40444;45.184;9.850;2023-11-19T02:03:01;101488.97;;;6.37;100.00
54546;BME280;40444;45.184;9.850;2023-11-19T02:05:33;101482.69;;;6.38;100.00
54546;BME280;40444;45.184;9.850;2023-11-19T02:08:02;101474.81;;;6.36;100.00
54546;BME280;40444;45.184;9.850;2023-11-19T02:10:31;101479.88;;;6.41;100.00
54546;BME280;40444;45.184;9.850;2023-11-19T02:13:00;101475.28;;;6.43;100.00
54546;BME280;40444;45.184;9.850;2023-11-19T02:15:33;101474.16;;;6.47;100.00
54546;BME280;40444;45.184;9.850;2023-11-19T02:18:24;101478.38;;;6.51;100.00
54546;BME280;40444;45.184;9.850;2023-11-19T02:20:59;101467.72;;;6.51;100.00
54546;BME280;40444;45.184;9.850;2023-11-19T02:23:28;101455.75;;;6.44;100.00
54546;BME280;40444;45.184;9.850;2023-11-19T02:28:36;101441.75;;;6.40;100.00
54546;BME280;40444;45.184;9.850;2023-11-19T02:31:05;101433.94;;;6.37;100.00
54546;BME280;40444;45.184;9.850;2023-11-19T02:33:38;101429.38;;;6.39;100.00
54546;BME280;40444;45.184;9.850;2023-11-19T02:36:08;101424.69;;;6.28;100.00
54546;BME280;40444;45.184;9.850;2023-11-19T02:38:37;101423.47;;;6.34;100.00
54546;BME280;40444;45.184;9.850;2023-11-19T02:41:06;101425.34;;;6.32;100.00
54546;BME280;40444;45.184;9.850;2023-11-19T02:43:35;101423.66;;;6.31;100.00
54546;BME280;40444;45.184;9.850;2023-11-19T02:46:04;101424.50;;;6.31;100.00
54546;BME280;40444;45.184;9.850;2023-11-19T02:48:39;101417.22;;;6.19;100.00
54546;BME280;40444;45.184;9.850;2023-11-19T02:51:08;101426.28;;;6.17;100.00
54546;BME280;40444;45.184;9.850;2023-11-19T02:53:39;101424.78;;;6.11;100.00
54546;BME280;40444;45.184;9.850;2023-11-19T02:56:08;101417.34;;;6.02;100.00
54546;BME280;40444;45.184;9.850;2023-11-19T02:58:55;101418.31;;;6.01;100.00
54546;BME280;40444;45.184;9.850;2023-11-19T03:01:25;101421.75;;;6.03;100.00
54546;BME280;40444;45.184;9.850;2023-11-19T03:04:00;101425.53;;;5.99;100.00
54546;BME280;40444;45.184;9.850;2023-11-19T03:06:30;101422.34;;;5.92;100.00
54546;BME280;40444;45.184;9.850;2023-11-19T03:09:00;101418.81;;;5.92;100.00
54546;BME280;40444;45.184;9.850;2023-11-19T03:11:34;101418.19;;;5.87;100.00
54546;BME280;40444;45.184;9.850;2023-11-19T03:14:03;101420.97;;;5.85;100.00
54546;BME280;40444;45.184;9.850;2023-11-19T03:16:31;101425.84;;;5.77;100.00
54546;BME280;40444;45.184;9.850;2023-11-19T03:19:01;101411.19;;;5.86;100.00
54546;BME280;40444;45.184;9.850;2023-11-19T03:21:30;101407.66;;;5.85;100.00
54546;BME280;40444;45.184;9.850;2023-11-19T03:23:59;101411.06;;;5.87;100.00
54546;BME280;40444;45.184;9.850;2023-11-19T03:26:30;101419.91;;;5.88;100.00
54546;BME280;40444;45.184;9.850;2023-11-19T03:28:59;101417.09;;;5.91;100.00
54546;BME280;40444;45.184;9.850;2023-11-19T03:31:28;101415.53;;;5.87;100.00
54546;BME280;40444;45.184;9.850;2023-11-19T03:33:57;101409.38;;;5.86;100.00
54546;BME280;40444;45.184;9.850;2023-11-19T03:36:31;101413.41;;;5.77;100.00
54546;BME280;40444;45.184;9.850;2023-11-19T03:39:01;101416.13;;;5.76;100.00
54546;BME280;40444;45.184;9.850;2023-11-19T03:41:29;101412.97;;;5.69;100.00
54546;BME280;40444;45.184;9.850;2023-11-19T03:44:08;101416.75;;;5.65;100.00
54546;BME280;40444;45.184;9.850;2023-11-19T03:46:37;101405.16;;;5.66;100.00
54546;BME280;40444;45.184;9.850;2023-11-19T03:49:06;101422.75;;;5.53;100.00
54546;BME280;40444;45.184;9.850;2023-11-19T03:51:35;101416.56;;;5.52;100.00
54546;BME280;40444;45.184;9.850;2023-11-19T03:54:03;101417.63;;;5.50;100.00
54546;BME280;40444;45.184;9.850;2023-11-19T03:56:31;101416.81;;;5.48;100.00
54546;BME280;40444;45.184;9.850;2023-11-19T03:59:01;101416.75;;;5.49;100.00
54546;BME280;40444;45.184;9.850;2023-11-19T04:01:29;101421.03;;;5.52;100.00
54546;BME280;40444;45.184;9.850;2023-11-19T04:03:57;101404.38;;;5.48;100.00
54546;BME280;40444;45.184;9.850;2023-11-19T04:06:26;101403.72;;;5.45;100.00
54546;BME280;40444;45.184;9.850;2023-11-19T04:08:54;101406.38;;;5.45;100.00
54546;BME280;40444;45.184;9.850;2023-11-19T04:11:23;101408.16;;;5.44;100.00
54546;BME280;40444;45.184;9.850;2023-11-19T04:13:51;101405.94;;;5.37;100.00
54546;BME280;40444;45.184;9.850;2023-11-19T04:16:25;101408.59;;;5.37;100.00
54546;BME280;40444;45.184;9.850;2023-11-19T04:18:54;101411.69;;;5.45;100.00
54546;BME280;40444;45.184;9.850;2023-11-19T04:21:25;101394.53;;;5.50;100.00
54546;BME280;40444;45.184;9.850;2023-11-19T04:23:54;101400.31;;;5.58;100.00
54546;BME280;40444;45.184;9.850;2023-11-19T04:26:22;101397.53;;;5.60;100.00
54546;BME280;40444;45.184;9.850;2023-11-19T04:28:51;101395.16;;;5.55;100.00
54546;BME280;40444;45.184;9.850;2023-11-19T04:31:20;101386.38;;;5.53;100.00
54546;BME280;40444;45.184;9.850;2023-11-19T04:33:48;101395.31;;;5.52;100.00
54546;BME280;40444;45.184;9.850;2023-11-19T04:36:18;101386.47;;;5.52;100.00
54546;BME280;40444;45.184;9.850;2023-11-19T04:38:47;101387.84;;;5.43;100.00
54546;BME280;40444;45.184;9.850;2023-11-19T04:41:15;101373.88;;;5.40;100.00
54546;BME280;40444;45.184;9.850;2023-11-19T04:43:44;101382.47;;;5.45;100.00
54546;BME280;40444;45.184;9.850;2023-11-19T04:46:12;101381.41;;;5.47;100.00
54546;BME280;40444;45.184;9.850;2023-11-19T04:48:41;101375.66;;;5.39;100.00
54546;BME280;40444;45.184;9.850;2023-11-19T04:51:09;101373.00;;;5.39;100.00
54546;BME280;40444;45.184;9.850;2023-11-19T04:53:38;101366.53;;;5.45;100.00
54546;BME280;40444;45.184;9.850;2023-11-19T04:56:12;101374.28;;;5.48;100.00
54546;BME280;40444;45.184;9.850;2023-11-19T04:58:44;101360.16;;;5.47;100.00
54546;BME280;40444;45.184;9.850;2023-11-19T05:01:14;101363.34;;;5.38;100.00
54546;BME280;40444;45.184;9.850;2023-11-19T05:03:45;101354.84;;;5.47;100.00
54546;BME280;40444;45.184;9.850;2023-11-19T05:06:14;101359.41;;;5.45;100.00
54546;BME280;40444;45.184;9.850;2023-11-19T05:08:43;101363.66;;;5.48;100.00
54546;BME280;40444;45.184;9.850;2023-11-19T05:11:12;101364.53;;;5.48;100.00
54546;BME280;40444;45.184;9.850;2023-11-19T05:13:46;101368.72;;;5.52;100.00
54546;BME280;40444;45.184;9.850;2023-11-19T05:16:14;101366.59;;;5.59;100.00
54546;BME280;40444;45.184;9.850;2023-11-19T05:18:43;101350.38;;;5.64;100.00
54546;BME280;40444;45.184;9.850;2023-11-19T05:21:12;101358.34;;;5.64;100.00
54546;BME280;40444;45.184;9.850;2023-11-19T05:23:41;101361.28;;;5.59;100.00
54546;BME280;40444;45.184;9.850;2023-11-19T05:26:17;101363.84;;;5.61;100.00
54546;BME280;40444;45.184;9.850;2023-11-19T05:28:47;101365.22;;;5.52;100.00
54546;BME280;40444;45.184;9.850;2023-11-19T05:31:17;101341.81;;;5.43;100.00
54546;BME280;40444;45.184;9.850;2023-11-19T05:33:46;101351.31;;;5.47;100.00
54546;BME280;40444;45.184;9.850;2023-11-19T05:36:14;101338.88;;;5.47;100.00
54546;BME280;40444;45.184;9.850;2023-11-19T05:38:42;101339.06;;;5.44;100.00
54546;BME280;40444;45.184;9.850;2023-11-19T05:41:13;101334.63;;;5.45;100.00
54546;BME280;40444;45.184;9.850;2023-11-19T05:43:42;101332.97;;;5.42;100.00
54546;BME280;40444;45.184;9.850;2023-11-19T05:46:10;101329.09;;;5.48;100.00
54546;BME280;40444;45.184;9.850;2023-11-19T05:48:41;101337.88;;;5.50;100.00
54546;BME280;40444;45.184;9.850;2023-11-19T05:51:09;101331.28;;;5.41;100.00
54546;BME280;40444;45.184;9.850;2023-11-19T05:53:38;101333.25;;;5.38;100.00
54546;BME280;40444;45.184;9.850;2023-11-19T05:56:08;101331.19;;;5.43;100.00
54546;BME280;40444;45.184;9.850;2023-11-19T05:58:37;101337.88;;;5.34;100.00
54546;BME280;40444;45.184;9.850;2023-11-19T06:01:07;101333.25;;;5.38;100.00
54546;BME280;40444;45.184;9.850;2023-11-19T06:03:36;101326.53;;;5.30;100.00
54546;BME280;40444;45.184;9.850;2023-11-19T06:06:05;101319.53;;;5.29;100.00
54546;BME280;40444;45.184;9.850;2023-11-19T06:08:34;101321.50;;;5.42;100.00
54546;BME280;40444;45.184;9.850;2023-11-19T06:11:03;101328.34;;;5.46;100.00
54546;BME280;40444;45.184;9.850;2023-11-19T06:13:31;101314.53;;;5.39;100.00
54546;BME280;40444;45.184;9.850;2023-11-19T20:05:34;101139.22;;;8.11;100.00
54546;BME280;40444;45.184;9.850;2023-11-19T20:08:07;101139.28;;;8.48;100.00
54546;BME280;40444;45.184;9.850;2023-11-19T20:10:38;101134.63;;;8.75;100.00
54546;BME280;40444;45.184;9.850;2023-11-19T20:13:08;101136.63;;;8.84;100.00
54546;BME280;40444;45.184;9.850;2023-11-19T20:15:54;101131.75;;;9.02;100.00
54546;BME280;40444;45.184;9.850;2023-11-19T20:18:37;101130.63;;;9.29;100.00
54546;BME280;40444;45.184;9.850;2023-11-19T20:21:07;101134.94;;;9.54;100.00
54546;BME280;40444;45.184;9.850;2023-11-19T20:23:41;101138.91;;;9.83;100.00
54546;BME280;40444;45.184;9.850;2023-11-19T20:26:09;101136.63;;;10.01;100.00
54546;BME280;40444;45.184;9.850;2023-11-19T20:28:41;101137.47;;;10.13;100.00
54546;BME280;40444;45.184;9.850;2023-11-19T20:31:12;101135.06;;;10.32;100.00
54546;BME280;40444;45.184;9.850;2023-11-19T20:33:41;101140.03;;;10.48;100.00
54546;BME280;40444;45.184;9.850;2023-11-19T20:36:09;101140.03;;;10.59;100.00
54546;BME280;40444;45.184;9.850;2023-11-19T20:38:37;101144.44;;;10.49;100.00
54546;BME280;40444;45.184;9.850;2023-11-19T20:41:07;101137.84;;;10.42;100.00
54546;BME280;40444;45.184;9.850;2023-11-19T20:43:42;101144.19;;;10.30;100.00
54546;BME280;40444;45.184;9.850;2023-11-19T20:46:24;101146.63;;;10.33;100.00
54546;BME280;40444;45.184;9.850;2023-11-19T20:48:55;101138.59;;;10.33;100.00
54546;BME280;40444;45.184;9.850;2023-11-19T20:51:31;101141.53;;;10.41;100.00
54546;BME280;40444;45.184;9.850;2023-11-19T20:54:07;101138.44;;;10.23;100.00
54546;BME280;40444;45.184;9.850;2023-11-19T20:56:36;101133.84;;;10.14;100.00
54546;BME280;40444;45.184;9.850;2023-11-19T20:59:05;101138.69;;;10.09;100.00
54546;BME280;40444;45.184;9.850;2023-11-19T21:01:37;101134.19;;;9.98;100.00
54546;BME280;40444;45.184;9.850;2023-11-19T21:04:10;101129.19;;;10.05;100.00
54546;BME280;40444;45.184;9.850;2023-11-19T21:06:39;101120.53;;;10.12;100.00
54546;BME280;40444;45.184;9.850;2023-11-19T21:09:18;101120.91;;;10.19;100.00
54546;BME280;40444;45.184;9.850;2023-11-19T21:11:48;101122.66;;;10.31;100.00
54546;BME280;40444;45.184;9.850;2023-11-19T21:14:19;101117.13;;;10.22;100.00
54546;BME280;40444;45.184;9.850;2023-11-19T21:16:48;101110.44;;;10.16;100.00
54546;BME280;40444;45.184;9.850;2023-11-19T21:19:21;101118.72;;;10.02;100.00
54546;BME280;40444;45.184;9.850;2023-11-19T21:21:50;101114.44;;;9.99;100.00
54546;BME280;40444;45.184;9.850;2023-11-19T21:24:19;101106.81;;;10.06;100.00
54546;BME280;40444;45.184;9.850;2023-11-19T21:26:49;101112.88;;;9.97;100.00
54546;BME280;40444;45.184;9.850;2023-11-19T21:29:18;101109.22;;;9.98;100.00
54546;BME280;40444;45.184;9.850;2023-11-19T21:31:46;101107.03;;;9.80;100.00
54546;BME280;40444;45.184;9.850;2023-11-19T21:34:23;101107.88;;;9.81;100.00
54546;BME280;40444;45.184;9.850;2023-11-19T21:36:54;101100.56;;;9.72;100.00
54546;BME280;40444;45.184;9.850;2023-11-19T21:39:23;101103.97;;;9.62;100.00
54546;BME280;40444;45.184;9.850;2023-11-19T21:41:52;101113.22;;;9.70;100.00
54546;BME280;40444;45.184;9.850;2023-11-19T21:44:23;101111.75;;;9.66;100.00
54546;BME280;40444;45.184;9.850;2023-11-19T21:46:53;101113.81;;;9.62;100.00
54546;BME280;40444;45.184;9.850;2023-11-19T21:49:22;101116.13;;;9.67;100.00
54546;BME280;40444;45.184;9.850;2023-11-19T21:51:51;101120.91;;;9.74;100.00
54546;BME280;40444;45.184;9.850;2023-11-19T21:54:23;101100.56;;;9.72;100.00
54546;BME280;40444;45.184;9.850;2023-11-19T21:56:52;101104.56;;;9.66;100.00
54546;BME280;40444;45.184;9.850;2023-11-19T21:59:20;101097.41;;;9.67;100.00
54546;BME280;40444;45.184;9.850;2023-11-19T22:01:50;101110.56;;;9.70;100.00
54546;BME280;40444;45.184;9.850;2023-11-19T22:04:20;101107.22;;;9.55;100.00
54546;BME280;40444;45.184;9.850;2023-11-19T22:06:52;101109.41;;;9.50;100.00
54546;BME280;40444;45.184;9.850;2023-11-19T22:09:21;101120.00;;;9.51;100.00
54546;BME280;40444;45.184;9.850;2023-11-19T22:11:50;101104.06;;;9.50;100.00
54546;BME280;40444;45.184;9.850;2023-11-19T22:14:42;101107.06;;;9.45;100.00
54546;BME280;40444;45.184;9.850;2023-11-19T22:17:20;101102.59;;;9.46;100.00
54546;BME280;40444;45.184;9.850;2023-11-19T22:20:09;101096.38;;;9.45;100.00
54546;BME280;40444;45.184;9.850;2023-11-19T22:22:59;101099.53;;;9.39;100.00
54546;BME280;40444;45.184;9.850;2023-11-19T22:25:33;101088.44;;;9.32;100.00
54546;BME280;40444;45.184;9.850;2023-11-19T22:28:01;101088.34;;;9.34;100.00
54546;BME280;40444;45.184;9.850;2023-11-19T22:30:32;101084.81;;;9.33;100.00
54546;BME280;40444;45.184;9.850;2023-11-19T22:33:01;101096.00;;;9.39;100.00
54546;BME280;40444;45.184;9.850;2023-11-19T22:35:32;101101.38;;;9.39;100.00
54546;BME280;40444;45.184;9.850;2023-11-19T22:38:01;101100.50;;;9.38;100.00
54546;BME280;40444;45.184;9.850;2023-11-19T22:40:29;101100.88;;;9.33;100.00
54546;BME280;40444;45.184;9.850;2023-11-19T22:42:58;101096.47;;;9.32;100.00
54546;BME280;40444;45.184;9.850;2023-11-19T22:45:26;101097.78;;;9.27;100.00
54546;BME280;40444;45.184;9.850;2023-11-19T22:47:55;101106.38;;;9.19;100.00
54546;BME280;40444;45.184;9.850;2023-11-19T22:50:24;101099.34;;;9.18;100.00
54546;BME280;40444;45.184;9.850;2023-11-19T22:52:53;101094.00;;;9.18;100.00
54546;BME280;40444;45.184;9.850;2023-11-19T22:55:21;101099.47;;;9.17;100.00
54546;BME280;40444;45.184;9.850;2023-11-19T22:57:49;101098.84;;;9.13;100.00
54546;BME280;40444;45.184;9.850;2023-11-19T23:00:21;101100.53;;;9.14;100.00
54546;BME280;40444;45.184;9.850;2023-11-19T23:02:59;101098.56;;;9.05;100.00
54546;BME280;40444;45.184;9.850;2023-11-19T23:05:31;101091.53;;;9.04;100.00
54546;BME280;40444;45.184;9.850;2023-11-19T23:08:04;101090.38;;;8.95;100.00
54546;BME280;40444;45.184;9.850;2023-11-19T23:10:35;101099.22;;;8.84;100.00
54546;BME280;40444;45.184;9.850;2023-11-19T23:13:03;101092.78;;;8.87;100.00
54546;BME280;40444;45.184;9.850;2023-11-19T23:15:33;101096.44;;;8.86;100.00
54546;BME280;40444;45.184;9.850;2023-11-19T23:18:02;101092.78;;;8.87;100.00
54546;BME280;40444;45.184;9.850;2023-11-19T23:20:34;101088.28;;;8.88;100.00
54546;BME280;40444;45.184;9.850;2023-11-19T23:23:03;101084.66;;;8.89;100.00
54546;BME280;40444;45.184;9.850;2023-11-19T23:25:33;101092.16;;;8.83;100.00
54546;BME280;40444;45.184;9.850;2023-11-19T23:28:02;101088.81;;;8.69;100.00
54546;BME280;40444;45.184;9.850;2023-11-19T23:30:30;101082.81;;;8.65;100.00
54546;BME280;40444;45.184;9.850;2023-11-19T23:32:58;101086.69;;;8.61;100.00
54546;BME280;40444;45.184;9.850;2023-11-19T23:35:27;101078.78;;;8.59;100.00
54546;BME280;40444;45.184;9.850;2023-11-19T23:37:56;101073.34;;;8.61;100.00
54546;BME280;40444;45.184;9.850;2023-11-19T23:40:24;101075.78;;;8.64;100.00
54546;BME280;40444;45.184;9.850;2023-11-19T23:42:53;101081.13;;;8.64;100.00
54546;BME280;40444;45.184;9.850;2023-11-19T23:45:22;101078.47;;;8.64;100.00
54546;BME280;40444;45.184;9.850;2023-11-19T23:47:51;101088.13;;;8.54;100.00
54546;BME280;40444;45.184;9.850;2023-11-19T23:50:20;101080.19;;;8.52;100.00
54546;BME280;40444;45.184;9.850;2023-11-19T23:52:48;101086.94;;;8.58;100.00
54546;BME280;40444;45.184;9.850;2023-11-19T23:55:17;101068.53;;;8.66;100.00
54546;BME280;40444;45.184;9.850;2023-11-19T23:57:45;101070.56;;;8.63;100.00
